createdAt,value
2018-05-24T00:02:52.478Z,7.23
2018-05-24T00:07:53.872Z,6.70
2018-05-24T00:12:55.348Z,8.17
2018-05-24T00:17:57.492Z,9.10
2018-05-24T00:22:58.942Z,9.10
2018-05-24T00:28:00.268Z,7.27
2018-05-24T00:33:02.637Z,10.03
2018-05-24T00:38:04.058Z,7.33
2018-05-24T00:43:05.385Z,9.90
2018-05-24T00:48:08.064Z,8.47
2018-05-24T00:53:10.528Z,9.93
2018-05-24T00:58:11.866Z,9.53
2018-05-24T01:03:13.545Z,8.63
2018-05-24T01:08:14.940Z,7.53
2018-05-24T01:13:16.575Z,7.77
2018-05-24T01:18:17.888Z,7.83
2018-05-24T01:23:19.242Z,7.20
2018-05-24T01:28:20.913Z,8.40
2018-05-24T01:33:22.804Z,9.87
2018-05-24T01:38:24.908Z,11.67
2018-05-24T01:43:26.771Z,9.13
2018-05-24T01:48:28.062Z,9.40
2018-05-24T01:53:29.422Z,8.97
2018-05-24T01:58:30.732Z,7.67
2018-05-24T02:03:32.107Z,8.77
2018-05-24T02:08:33.491Z,7.90
2018-05-24T02:13:34.791Z,8.87
2018-05-24T02:18:36.121Z,9.87
2018-05-24T02:23:37.442Z,11.77
2018-05-24T02:28:38.858Z,9.80
2018-05-24T02:33:40.221Z,10.33
2018-05-24T02:38:41.517Z,6.43
2018-05-24T02:43:42.845Z,8.90
2018-05-24T02:48:44.147Z,7.60
2018-05-24T02:53:45.527Z,10.57
2018-05-24T02:58:46.866Z,6.67
2018-05-24T03:03:48.206Z,7.10
2018-05-24T03:08:49.516Z,8.80
2018-05-24T03:13:50.875Z,9.30
2018-05-24T03:18:52.288Z,8.37
2018-05-24T03:23:53.554Z,7.83
2018-05-24T03:28:54.863Z,6.10
2018-05-24T03:33:56.271Z,11.50
2018-05-24T03:38:57.631Z,7.80
2018-05-24T03:43:59.020Z,6.63
2018-05-24T03:49:00.398Z,7.90
2018-05-24T03:54:01.760Z,8.23
2018-05-24T04:04:52.276Z,7.47
2018-05-24T04:09:54.262Z,6.93
2018-05-24T04:14:55.613Z,6.90
2018-05-24T04:19:57.617Z,3.60
2018-05-24T04:24:58.914Z,6.93
2018-05-24T04:30:00.282Z,4.00
2018-05-24T04:35:01.771Z,4.33
2018-05-24T04:40:03.027Z,4.07
2018-05-24T04:45:05.082Z,6.13
2018-05-24T04:50:06.332Z,6.03
2018-05-24T04:55:07.642Z,4.67
2018-05-24T05:00:09.657Z,4.93
2018-05-24T05:05:10.899Z,7.03
2018-05-24T05:10:12.256Z,4.03
2018-05-24T05:15:13.550Z,5.03
2018-05-24T05:20:14.838Z,4.33
2018-05-24T05:25:16.258Z,5.90
2018-05-24T05:30:17.516Z,5.00
2018-05-24T05:35:18.908Z,5.17
2018-05-24T05:40:20.176Z,4.57
2018-05-24T05:45:21.396Z,3.80
2018-05-24T05:50:22.662Z,5.90
2018-05-24T05:55:23.954Z,5.53
2018-05-24T06:00:25.185Z,3.90
2018-05-24T06:05:26.494Z,4.17
2018-05-24T06:10:27.833Z,3.80
2018-05-24T06:15:29.179Z,4.43
2018-05-24T06:20:31.184Z,4.60
2018-05-24T06:25:32.553Z,5.97
2018-05-24T06:30:33.961Z,5.67
2018-05-24T06:35:35.277Z,5.77
2018-05-24T06:40:36.853Z,4.73
2018-05-24T06:45:38.045Z,6.57
2018-05-24T06:50:40.164Z,4.27
2018-05-24T06:55:41.434Z,4.77
2018-05-24T07:00:42.747Z,4.47
2018-05-24T07:05:44.830Z,5.10
2018-05-24T07:10:46.889Z,5.00
2018-05-24T07:15:48.204Z,8.00
2018-05-24T07:20:49.581Z,7.43
2018-05-24T07:25:50.912Z,5.60
2018-05-24T07:30:52.212Z,8.87
2018-05-24T07:35:53.522Z,6.50
2018-05-24T07:40:55.523Z,5.97
2018-05-24T07:45:56.850Z,5.77
2018-05-24T07:50:58.866Z,5.60
2018-05-24T07:56:00.195Z,6.17
2018-05-24T08:01:02.294Z,7.00
2018-05-24T08:06:03.635Z,7.30
2018-05-24T08:11:05.613Z,6.20
2018-05-24T08:16:06.945Z,7.17
2018-05-24T08:21:08.191Z,8.47
2018-05-24T08:26:09.567Z,8.17
2018-05-24T08:31:10.802Z,6.77
2018-05-24T08:36:12.153Z,5.97
2018-05-24T08:41:14.445Z,7.10
2018-05-24T08:46:15.764Z,6.93
2018-05-24T08:51:17.800Z,6.03
2018-05-24T08:56:19.042Z,7.43
2018-05-24T09:01:20.432Z,7.87
2018-05-24T09:06:21.817Z,9.03
2018-05-24T09:11:23.211Z,6.63
2018-05-24T09:16:25.279Z,7.80
2018-05-24T09:21:26.582Z,8.83
2018-05-24T09:26:27.935Z,8.07
2018-05-24T09:31:29.249Z,8.20
2018-05-24T09:36:30.635Z,9.30
2018-05-24T09:41:31.949Z,6.07
2018-05-24T09:46:33.213Z,6.63
2018-05-24T09:51:34.450Z,7.27
2018-05-24T09:56:35.776Z,9.70
2018-05-24T10:01:37.890Z,8.27
2018-05-24T10:06:39.171Z,8.60
2018-05-24T10:11:41.493Z,8.03
2018-05-24T10:16:42.844Z,7.07
2018-05-24T10:21:44.060Z,7.20
2018-05-24T10:26:45.554Z,6.87
2018-05-24T10:31:46.826Z,5.77
2018-05-24T10:36:48.226Z,4.83
2018-05-24T10:41:50.335Z,5.50
2018-05-24T10:46:51.625Z,4.60
2018-05-24T10:51:52.915Z,4.93
2018-05-24T10:56:54.254Z,4.50
2018-05-24T11:01:55.661Z,6.03
2018-05-24T11:06:57.660Z,5.80
2018-05-24T11:11:58.949Z,6.77
2018-05-24T11:17:01.047Z,7.60
2018-05-24T11:22:02.489Z,8.20
2018-05-24T11:27:03.921Z,8.20
2018-05-24T11:32:06.510Z,8.63
2018-05-24T11:37:07.797Z,13.53
2018-05-24T11:42:09.125Z,13.03
2018-05-24T11:47:11.180Z,10.10
2018-05-24T11:52:12.508Z,11.30
2018-05-24T11:57:13.798Z,11.30
2018-05-24T12:02:15.269Z,12.63
2018-05-24T12:07:16.583Z,13.07
2018-05-24T12:12:17.910Z,9.63
2018-05-24T12:17:19.888Z,9.23
2018-05-24T12:22:21.886Z,9.27
2018-05-24T12:27:23.275Z,9.17
2018-05-24T12:32:24.534Z,6.17
2018-05-24T12:37:25.826Z,6.17
2018-05-24T12:42:29.494Z,6.00
2018-05-24T12:47:30.988Z,7.77
2018-05-24T12:52:32.257Z,4.83
2018-05-24T12:57:33.539Z,4.30
2018-05-24T13:02:35.709Z,4.13
2018-05-24T13:07:37.176Z,3.23
2018-05-24T13:12:38.431Z,3.03
2018-05-24T13:17:39.778Z,2.53
2018-05-24T13:22:40.999Z,2.90
2018-05-24T13:27:43.009Z,3.70
2018-05-24T13:32:44.409Z,3.20
2018-05-24T13:37:45.728Z,5.10
2018-05-24T13:42:47.071Z,3.87
2018-05-24T13:47:49.180Z,3.47
2018-05-24T13:52:50.882Z,4.57
2018-05-24T13:57:52.227Z,3.80
2018-05-24T14:02:53.619Z,5.47
2018-05-24T14:07:55.801Z,3.50
2018-05-24T14:12:57.919Z,3.57
2018-05-24T14:17:59.321Z,4.27
2018-05-24T14:23:00.707Z,4.70
2018-05-24T14:28:02.073Z,3.30
2018-05-24T14:33:04.137Z,3.33
2018-05-24T14:38:05.511Z,3.40
2018-05-24T14:43:06.890Z,3.63
2018-05-24T14:48:08.271Z,3.70
2018-05-24T14:53:10.379Z,2.43
2018-05-24T14:58:11.753Z,2.10
2018-05-24T15:03:13.145Z,2.00
2018-05-24T15:08:14.540Z,2.77
2018-05-24T15:13:28.151Z,2.00
2018-05-24T15:18:30.418Z,2.23
2018-05-24T15:23:31.710Z,2.60
2018-05-24T15:28:33.282Z,3.40
2018-05-24T15:33:34.700Z,3.57
2018-05-24T15:38:36.082Z,3.33
2018-05-24T15:43:37.486Z,4.27
2018-05-24T15:48:38.895Z,4.10
2018-05-24T15:53:40.194Z,3.87
2018-05-24T15:58:42.141Z,3.70
2018-05-24T16:03:43.548Z,4.00
2018-05-24T16:08:44.886Z,4.10
2018-05-24T16:13:46.981Z,3.20
2018-05-24T16:18:48.379Z,3.70
2018-05-24T16:23:50.428Z,3.30
2018-05-24T16:28:53.238Z,7.67
2018-05-24T16:33:55.415Z,4.37
2018-05-24T16:38:56.799Z,5.00
2018-05-24T16:43:58.269Z,4.63
2018-05-24T16:48:59.607Z,4.23
2018-05-24T16:54:01.030Z,4.33
2018-05-24T16:59:03.089Z,4.20
2018-05-24T17:04:04.455Z,3.73
2018-05-24T17:09:05.800Z,3.97
2018-05-24T17:14:07.845Z,4.00
2018-05-24T17:19:09.202Z,4.70
2018-05-24T17:24:10.549Z,6.33
2018-05-24T17:29:11.998Z,6.03
2018-05-24T17:34:13.361Z,5.50
2018-05-24T17:39:14.711Z,4.40
2018-05-24T17:44:16.071Z,4.37
2018-05-24T17:49:17.393Z,4.97
2018-05-24T17:54:18.805Z,5.00
2018-05-24T17:59:20.207Z,9.23
2018-05-24T18:04:21.485Z,7.37
2018-05-24T18:09:22.765Z,16.57
2018-05-24T18:14:24.773Z,8.20
2018-05-24T18:19:26.111Z,11.17
2018-05-24T18:24:27.419Z,10.13
2018-05-24T18:29:29.567Z,10.10
2018-05-24T18:34:34.814Z,11.00
2018-05-24T18:39:36.482Z,11.53
2018-05-24T18:44:38.539Z,12.30
2018-05-24T18:49:39.922Z,12.37
2018-05-24T18:54:41.954Z,14.07
2018-05-24T18:59:43.289Z,13.93
2018-05-24T19:04:44.655Z,12.90
2018-05-24T19:09:45.990Z,14.87
2018-05-24T19:14:47.360Z,14.23
2018-05-24T19:19:48.825Z,15.60
2018-05-24T19:24:50.881Z,14.83
2018-05-24T19:29:52.271Z,12.47
2018-05-24T19:34:53.603Z,13.77
2018-05-24T19:39:54.948Z,13.03
2018-05-24T19:44:56.224Z,15.60
2018-05-24T19:49:57.562Z,15.70
2018-05-24T19:54:58.796Z,15.33
2018-05-24T20:00:00.147Z,13.97
2018-05-24T20:05:03.618Z,14.33
2018-05-24T20:10:05.919Z,16.10
2018-05-24T20:15:09.170Z,13.57
2018-05-24T20:20:10.605Z,13.17
2018-05-24T20:25:12.586Z,13.30
2018-05-24T20:30:14.624Z,14.97
2018-05-24T20:35:15.940Z,14.83
2018-05-24T20:40:17.215Z,19.00
2018-05-24T20:45:18.578Z,14.97
2018-05-24T20:50:19.984Z,15.47
2018-05-24T20:55:21.419Z,15.07
2018-05-24T21:00:22.734Z,13.57
2018-05-24T21:05:24.041Z,14.83
2018-05-24T21:10:25.348Z,12.43
2018-05-24T21:15:26.747Z,12.57
2018-05-24T21:20:29.207Z,14.63
2018-05-24T21:25:31.258Z,14.47
2018-05-24T21:30:32.671Z,11.70
2018-05-24T21:35:35.805Z,14.60
2018-05-24T21:40:37.114Z,14.73
2018-05-24T21:45:39.489Z,14.70
2018-05-24T21:50:41.635Z,17.43
2018-05-24T21:55:43.009Z,14.73
2018-05-24T22:00:50.658Z,16.07
2018-05-24T22:05:52.853Z,13.10
2018-05-24T22:10:54.958Z,17.97
2018-05-24T22:15:56.949Z,17.87
2018-05-24T22:20:58.212Z,14.10
2018-05-24T22:25:59.516Z,14.60
2018-05-24T22:31:00.913Z,16.90
2018-05-24T22:36:02.266Z,15.27
2018-05-24T22:41:03.630Z,13.97
2018-05-24T22:46:05.666Z,14.97
2018-05-24T22:51:06.988Z,15.50
2018-05-24T22:56:08.385Z,14.67
2018-05-24T23:01:09.631Z,15.17
2018-05-24T23:06:10.918Z,13.70
2018-05-24T23:11:12.275Z,15.30
2018-05-24T23:16:13.593Z,16.07
2018-05-24T23:21:14.982Z,14.97
2018-05-24T23:26:16.378Z,16.80
2018-05-24T23:31:17.766Z,19.60
2018-05-24T23:36:19.806Z,16.93
2018-05-24T23:41:21.117Z,22.33
2018-05-24T23:46:23.127Z,22.47
2018-05-24T23:51:24.425Z,22.57
2018-05-24T23:56:25.932Z,21.13
